Time;durP1;ratioP1;P1;durP2;ratioP2;P2;SDS_P1;SDS_P2;PMS_P1;PMS_P2;Temp;Humidity;BMP_temperature;BMP_pressure;BME280_temperature;BME280_humidity;BME280_pressure;Samples;Min_cycle;Max_cycle;Signal;HPM_P1;HPM_P2
2022/08/01 00:00:01;;;;;;;314.60;298.10;;;;;;;22.63;48.08;96735.63;5054602;28;20280;-68
2022/08/01 00:02:27;;;;;;;377.40;357.65;;;;;;;22.53;48.57;96733.22;5054514;28;20206;-68
2022/08/01 00:04:56;;;;;;;411.52;389.73;;;;;;;22.47;48.70;96733.63;5054353;28;20193;-68
2022/08/01 00:07:21;;;;;;;450.38;426.25;;;;;;;22.46;48.78;96743.53;5054386;28;20251;-68
2022/08/01 00:09:46;;;;;;;415.25;393.13;;;;;;;22.38;48.86;96742.38;5054262;28;20202;-68
2022/08/01 00:12:12;;;;;;;313.52;297.38;;;;;;;22.34;49.33;96735.28;5054261;28;20182;-69
2022/08/01 00:14:37;;;;;;;212.30;201.70;;;;;;;22.30;49.50;96736.97;5054009;28;20650;-68
2022/08/01 00:17:03;;;;;;;120.22;113.95;;;;;;;22.34;49.41;96738.75;5054254;28;20186;-68
2022/08/01 00:19:28;;;;;;;58.38;55.38;;;;;;;22.31;49.59;96742.00;5052491;28;20201;-68
2022/08/01 00:21:53;;;;;;;39.95;37.85;;;;;;;22.26;50.02;96734.13;5052079;28;20192;-68
2022/08/01 00:24:19;;;;;;;38.15;36.05;;;;;;;22.21;50.03;96739.56;5053422;28;20268;-68
2022/08/01 00:26:44;;;;;;;49.58;46.88;;;;;;;22.19;50.33;96736.41;5054062;28;20181;-68
2022/08/01 00:29:09;;;;;;;73.28;69.43;;;;;;;22.14;50.28;96744.53;5054027;28;20209;-68
2022/08/01 00:31:35;;;;;;;119.78;113.57;;;;;;;22.04;50.74;96751.97;5054128;28;20220;-68
2022/08/01 00:34:00;;;;;;;121.82;115.53;;;;;;;21.96;51.21;96751.59;5053941;28;20531;-68
2022/08/01 00:36:25;;;;;;;118.30;112.20;;;;;;;22.03;50.87;96756.53;5054272;28;20251;-68
2022/08/01 00:38:51;;;;;;;114.57;108.65;;;;;;;22.03;51.14;96753.06;5052758;28;20182;-68
2022/08/01 00:41:16;;;;;;;79.55;75.45;;;;;;;21.99;51.16;96752.88;5053893;28;20182;-68
2022/08/01 00:43:42;;;;;;;67.72;64.13;;;;;;;21.96;51.20;96751.59;5053221;28;20587;-68
2022/08/01 00:46:07;;;;;;;62.92;59.58;;;;;;;21.98;51.41;96751.31;5053648;28;20269;-68
2022/08/01 00:48:33;;;;;;;71.68;67.75;;;;;;;21.99;51.65;96747.56;5053880;28;20198;-67
2022/08/01 00:50:58;;;;;;;105.70;100.13;;;;;;;21.83;51.93;96749.72;5052465;28;20285;-68
2022/08/01 00:53:25;;;;;;;122.50;115.28;;;;;;;21.78;52.11;96747.19;5052423;28;20268;-68
2022/08/01 00:55:50;;;;;;;157.15;148.88;;;;;;;21.71;52.48;96746.78;5053496;28;20201;-69
2022/08/01 00:58:16;;;;;;;172.75;163.57;;;;;;;21.80;52.22;96749.53;5052955;28;20185;-68
2022/08/01 01:00:41;;;;;;;176.23;166.90;;;;;;;21.77;52.71;96748.25;5053477;28;20186;-68
2022/08/01 01:03:07;;;;;;;147.20;139.27;;;;;;;21.64;52.93;96746.38;5053612;28;20270;-67
2022/08/01 01:05:40;;;;;;;116.03;109.85;;;;;;;21.69;53.04;96748.16;5053135;28;20535;-68
2022/08/01 01:08:16;;;;;;;61.75;58.42;;;;;;;21.64;53.49;96746.38;5052034;28;20197;-68
2022/08/01 01:11:04;;;;;;;48.85;46.17;;;;;;;21.52;53.98;96754.88;5052441;28;20189;-68
2022/08/01 01:13:45;;;;;;;29.67;28.13;;;;;;;21.55;54.11;96754.31;5052106;28;20186;-67
2022/08/01 01:16:14;;;;;;;51.97;49.17;;;;;;;21.46;54.76;96752.59;5053160;28;20188;-68
2022/08/01 01:18:47;;;;;;;80.30;76.20;;;;;;;21.48;54.73;96753.13;5051757;28;20202;-68
2022/08/01 01:21:18;;;;;;;145.27;138.13;;;;;;;21.38;55.37;96750.66;5051623;28;20536;-68
2022/08/01 01:24:05;;;;;;;299.05;284.27;;;;;;;21.36;55.50;96752.81;5051678;28;20198;-68
2022/08/01 01:26:50;;;;;;;405.92;385.70;;;;;;;21.37;55.68;96747.19;5052961;28;20181;-69
2022/08/01 01:29:21;;;;;;;365.73;347.30;;;;;;;21.36;55.88;96760.81;5039968;28;20197;-68
2022/08/01 01:31:55;;;;;;;274.10;260.70;;;;;;;21.38;55.92;96754.09;5052999;28;20178;-68
2022/08/01 01:34:23;;;;;;;185.70;176.52;;;;;;;21.31;56.50;96759.03;5051319;28;20197;-68
2022/08/01 01:36:51;;;;;;;121.38;115.38;;;;;;;21.27;56.69;96752.72;5052081;28;20243;-68
2022/08/01 01:39:18;;;;;;;106.93;101.65;;;;;;;21.39;56.50;96752.22;5052895;28;20181;-68
2022/08/01 01:41:45;;;;;;;92.93;88.03;;;;;;;21.28;56.70;96764.19;5052841;28;20201;-68
2022/08/01 01:44:11;;;;;;;119.38;113.03;;;;;;;21.25;57.00;96760.22;5052593;28;20186;-68
2022/08/01 01:46:37;;;;;;;180.63;171.27;;;;;;;21.24;56.93;96763.97;5052784;28;20190;-68
2022/08/01 01:49:04;;;;;;;198.68;188.38;;;;;;;21.14;57.42;96762.28;5052138;28;20213;-68
2022/08/01 01:51:30;;;;;;;148.02;140.35;;;;;;;21.06;58.08;96767.47;5052448;28;20329;-68
2022/08/01 01:53:58;;;;;;;113.43;107.50;;;;;;;21.05;58.26;96766.69;5052550;28;20638;-67
2022/08/01 01:56:25;;;;;;;97.78;92.70;;;;;;;21.01;58.24;96768.34;5052575;28;20190;-68
2022/08/01 01:58:58;;;;;;;100.43;94.80;;;;;;;21.09;58.27;96767.66;5051273;28;20493;-67
2022/08/01 02:01:26;;;;;;;75.07;71.10;;;;;;;20.99;58.85;96767.06;5051651;28;20190;-68
2022/08/01 02:03:53;;;;;;;54.35;51.28;;;;;;;21.00;58.76;96758.78;5052279;28;20182;-68
2022/08/01 02:06:20;;;;;;;52.70;49.92;;;;;;;21.03;58.54;96760.84;5052121;28;20654;-67
2022/08/01 02:08:47;;;;;;;39.63;37.53;;;;;;;21.05;58.41;96758.69;5052610;28;20296;-67
2022/08/01 02:11:17;;;;;;;32.83;31.05;;;;;;;20.87;58.85;96764.06;5051767;28;20320;-67
2022/08/01 02:13:44;;;;;;;30.25;28.65;;;;;;;20.79;59.05;96762.09;5052231;28;20182;-68
2022/08/01 02:16:12;;;;;;;34.80;32.95;;;;;;;20.82;59.25;96764.94;5050660;28;20300;-68
2022/08/01 02:18:39;;;;;;;37.13;35.03;;;;;;;20.92;58.61;96763.97;5051139;28;20201;-68
2022/08/01 02:21:08;;;;;;;42.55;40.22;;;;;;;20.73;59.18;96775.47;5051659;28;20178;-68
2022/08/01 02:23:37;;;;;;;44.85;42.35;;;;;;;20.74;59.34;96776.25;5052175;28;20178;-68
2022/08/01 02:26:09;;;;;;;41.80;39.55;;;;;;;20.65;59.84;96773.47;5050892;28;20192;-68
2022/08/01 02:28:41;;;;;;;36.20;34.25;;;;;;;20.64;59.64;96774.56;5051632;28;20259;-68
2022/08/01 02:31:12;;;;;;;34.35;32.50;;;;;;;20.66;59.78;96771.63;5052353;28;20178;-68
2022/08/01 02:33:43;;;;;;;42.08;39.65;;;;;;;20.64;60.27;96779.09;5052000;28;20170;-68
2022/08/01 02:36:10;;;;;;;47.65;45.05;;;;;;;20.71;60.10;96776.84;5051916;28;20594;-68
2022/08/01 02:38:40;;;;;;;57.63;54.58;;;;;;;20.63;60.29;96774.84;5051768;28;20604;-68
2022/08/01 02:41:11;;;;;;;110.40;104.68;;;;;;;20.46;61.48;96782.56;5052097;28;20189;-68
2022/08/01 02:43:42;;;;;;;191.30;181.30;;;;;;;20.58;61.16;96780.25;5051865;28;20260;-68
2022/08/01 02:46:16;;;;;;;227.02;214.73;;;;;;;20.53;61.47;96780.34;5050206;28;20265;-68
2022/08/01 02:48:43;;;;;;;199.70;189.20;;;;;;;20.55;61.55;96776.31;5051294;28;20190;-68
2022/08/01 02:51:11;;;;;;;175.90;166.18;;;;;;;20.47;62.07;96784.94;5056000;28;20208;-68
2022/08/01 02:53:40;;;;;;;163.10;154.82;;;;;;;20.52;62.05;96778.75;5055529;28;20231;-69
2022/08/01 02:56:08;;;;;;;150.00;142.40;;;;;;;20.44;62.26;96782.88;5055415;28;20186;-68
2022/08/01 02:58:35;;;;;;;150.13;142.73;;;;;;;20.43;62.61;96783.16;5055562;28;20178;-68
2022/08/01 03:01:03;;;;;;;111.75;106.05;;;;;;;20.40;62.70;96784.50;5055825;28;20295;-67
2022/08/01 03:03:29;;;;;;;78.55;74.63;;;;;;;20.37;63.09;96782.44;5055510;28;20236;-68
2022/08/01 03:05:57;;;;;;;39.53;37.47;;;;;;;20.38;63.17;96775.25;5055571;28;20197;-67
2022/08/01 03:08:24;;;;;;;43.88;41.42;;;;;;;20.27;63.62;96783.34;5054923;28;20212;-68
2022/08/01 03:10:51;;;;;;;59.47;56.22;;;;;;;20.31;63.68;96780.91;5054076;28;20273;-68
2022/08/01 03:13:18;;;;;;;75.25;71.25;;;;;;;20.29;63.77;96783.84;5055115;28;20238;-68
2022/08/01 03:15:45;;;;;;;73.28;69.47;;;;;;;20.26;63.85;96787.09;5055457;28;20182;-68
2022/08/01 03:18:13;;;;;;;51.22;48.53;;;;;;;20.31;63.70;96783.56;5067887;28;20195;-68
2022/08/01 03:20:39;;;;;;;50.40;47.75;;;;;;;20.27;64.01;96786.03;5054317;28;20553;-68
2022/08/01 03:23:08;;;;;;;70.70;66.93;;;;;;;20.27;63.96;96785.22;5055193;28;20324;-68
2022/08/01 03:25:36;;;;;;;126.70;120.32;;;;;;;20.12;64.64;96788.88;5055148;28;20182;-67
2022/08/01 03:28:04;;;;;;;173.57;165.18;;;;;;;20.03;64.98;96792.47;5053682;28;20652;-67
2022/08/01 03:30:31;;;;;;;198.60;188.65;;;;;;;20.00;65.19;96795.72;5055007;28;20263;-67
2022/08/01 03:32:57;;;;;;;148.13;140.43;;;;;;;19.96;65.43;96789.34;5054260;28;20182;-67
2022/08/01 03:35:30;;;;;;;117.35;111.00;;;;;;;19.90;65.70;96792.09;5055119;28;20178;-68
2022/08/01 03:37:58;;;;;;;78.38;74.18;;;;;;;19.92;65.85;96795.25;5054710;28;20236;-67
2022/08/01 03:40:28;;;;;;;71.60;67.63;;;;;;;19.99;65.65;96789.59;5054886;28;20217;-67
2022/08/01 03:43:05;;;;;;;108.43;102.28;;;;;;;20.05;65.71;96795.66;5054684;28;20233;-67
2022/08/01 03:45:34;;;;;;;218.57;206.73;;;;;;;19.90;66.18;96789.44;5054915;28;20182;-68
2022/08/01 03:48:01;;;;;;;281.65;266.40;;;;;;;19.94;66.27;96800.31;5054659;28;20189;-68
2022/08/01 03:50:30;;;;;;;324.27;306.38;;;;;;;19.87;66.57;96792.66;5054738;28;20185;-67
2022/08/01 03:52:58;;;;;;;330.85;312.63;;;;;;;19.94;66.37;96795.00;5054635;28;20190;-67
2022/08/01 03:55:25;;;;;;;335.50;317.27;;;;;;;20.03;66.34;96798.59;5054332;28;20256;-67
2022/08/01 03:57:51;;;;;;;317.70;300.55;;;;;;;20.03;66.42;96793.25;5046498;28;20281;-67
2022/08/01 04:00:18;;;;;;;302.65;286.70;;;;;;;19.92;67.23;96797.13;5053545;28;20614;-67
2022/08/01 04:02:46;;;;;;;335.42;317.52;;;;;;;20.01;67.01;96795.41;5054109;28;20185;-67
2022/08/01 04:05:11;;;;;;;380.40;360.05;;;;;;;19.91;67.74;96796.34;5054267;28;20198;-67
2022/08/01 04:07:38;;;;;;;433.27;409.88;;;;;;;19.96;67.67;96800.78;5053771;28;20197;-67
2022/08/01 04:10:04;;;;;;;509.08;481.00;;;;;;;20.06;67.62;96790.00;5053715;28;20228;-68
2022/08/01 04:12:30;;;;;;;532.35;502.98;;;;;;;20.21;67.03;96795.16;5053844;28;20196;-70
2022/08/01 04:14:55;;;;;;;541.03;511.10;;;;;;;20.31;66.80;96796.88;5053552;28;20182;-68
2022/08/01 04:17:21;;;;;;;535.15;505.67;;;;;;;20.41;66.57;96799.41;5060410;28;20178;-68
2022/08/01 04:19:46;;;;;;;490.02;463.20;;;;;;;20.40;66.50;96797.81;5052594;28;20284;-68
2022/08/01 04:22:14;;;;;;;508.70;480.85;;;;;;;20.28;67.12;96803.56;5053408;28;20261;-68
2022/08/01 04:24:42;;;;;;;490.08;463.10;;;;;;;20.39;67.17;96792.81;5054125;28;20524;-68
2022/08/01 04:27:14;;;;;;;519.13;490.25;;;;;;;20.44;67.12;96808.72;5054163;28;20182;-68
2022/08/01 04:29:41;;;;;;;509.75;481.35;;;;;;;20.52;66.78;96803.50;5053877;28;20202;-68
2022/08/01 04:32:10;;;;;;;481.83;455.10;;;;;;;20.78;65.88;96809.25;5053741;28;20208;-70
2022/08/01 04:34:39;;;;;;;455.58;430.45;;;;;;;20.74;66.13;96801.03;5053616;28;20657;-68
2022/08/01 04:37:09;;;;;;;441.42;417.20;;;;;;;20.83;66.14;96814.50;5054020;28;20194;-68
2022/08/01 04:39:37;;;;;;;368.10;348.05;;;;;;;20.93;65.77;96813.53;5054002;28;20197;-68
2022/08/01 04:42:04;;;;;;;283.60;268.27;;;;;;;21.13;65.30;96811.31;5052979;28;20249;-68
2022/08/01 04:44:32;;;;;;;230.80;218.45;;;;;;;21.05;65.64;96813.88;5053598;28;20256;-68
2022/08/01 04:46:59;;;;;;;171.65;162.48;;;;;;;20.98;65.91;96818.78;5053312;28;20190;-69
2022/08/01 04:49:25;;;;;;;208.73;197.35;;;;;;;21.00;66.47;96822.75;5053422;28;20285;-68
2022/08/01 04:51:59;;;;;;;249.85;236.48;;;;;;;21.07;65.72;96823.13;5053366;28;20268;-69
2022/08/01 04:54:29;;;;;;;248.63;235.38;;;;;;;21.08;66.17;96815.94;5053415;28;20181;-68
2022/08/01 04:57:01;;;;;;;235.73;223.20;;;;;;;21.05;66.29;96824.53;5053341;28;20268;-68
2022/08/01 04:59:39;;;;;;;205.23;194.23;;;;;;;21.21;65.88;96811.75;5053185;28;20533;-68
2022/08/01 05:02:10;;;;;;;127.97;120.95;;;;;;;21.65;64.73;96811.22;5053011;28;20197;-68
2022/08/01 05:04:36;;;;;;;124.20;117.63;;;;;;;22.03;63.31;96811.81;5052706;28;20221;-68
2022/08/01 05:07:02;;;;;;;131.90;124.65;;;;;;;22.10;62.78;96804.19;5053030;28;20182;-68
2022/08/01 05:09:27;;;;;;;77.43;73.03;;;;;;;21.85;64.10;96805.47;5053025;28;20197;-68
2022/08/01 05:11:53;;;;;;;76.80;72.80;;;;;;;21.72;64.34;96801.72;5051839;28;20265;-69
2022/08/01 05:14:18;;;;;;;111.15;105.63;;;;;;;21.71;64.56;96800.16;5052487;28;20277;-69
2022/08/01 05:16:45;;;;;;;89.53;84.93;;;;;;;21.90;64.30;96800.81;5057379;28;20193;-68
2022/08/01 05:19:11;;;;;;;92.28;87.53;;;;;;;21.64;65.47;96804.28;5049491;28;20658;-68
2022/08/01 05:21:37;;;;;;;95.10;90.28;;;;;;;21.56;65.94;96798.56;5052174;28;20299;-68
2022/08/01 05:24:03;;;;;;;127.35;121.07;;;;;;;22.66;62.58;96799.19;5052577;28;20542;-68
2022/08/01 05:26:28;;;;;;;92.45;87.57;;;;;;;23.07;60.86;96795.53;5052662;28;20627;-67
2022/08/01 05:28:54;;;;;;;55.42;52.55;;;;;;;23.37;59.76;96794.75;5052710;28;20197;-68
2022/08/01 05:31:19;;;;;;;124.25;117.80;;;;;;;23.98;57.59;96804.59;5052962;28;20197;-68
2022/08/01 05:33:44;;;;;;;98.10;93.15;;;;;;;24.31;57.11;96804.19;5052602;28;20182;-67
2022/08/01 05:36:10;;;;;;;145.65;138.07;;;;;;;24.62;55.63;96812.09;5051569;28;20197;-67
2022/08/01 05:38:35;;;;;;;126.97;120.30;;;;;;;24.69;55.43;96810.50;5052499;28;20177;-67
2022/08/01 05:41:01;;;;;;;333.92;316.00;;;;;;;24.63;55.19;96806.41;5052192;28;20182;-66
2022/08/01 05:43:26;;;;;;;346.52;328.52;;;;;;;24.46;55.57;96808.31;5052139;28;20344;-66
2022/08/01 05:45:51;;;;;;;394.60;373.83;;;;;;;24.00;57.00;96812.31;5052539;28;20205;-64
2022/08/01 05:48:17;;;;;;;337.58;319.58;;;;;;;23.98;57.44;96815.28;5052568;28;20557;-67
2022/08/01 05:50:42;;;;;;;114.82;108.90;;;;;;;24.19;57.26;96820.88;5051729;28;20189;-67
2022/08/01 05:53:07;;;;;;;76.10;72.25;;;;;;;24.05;57.37;96814.84;5051266;28;20186;-66
2022/08/01 05:55:34;;;;;;;74.85;71.00;;;;;;;24.09;57.72;96820.34;5052053;28;20245;-66
2022/08/01 05:57:59;;;;;;;79.88;75.85;;;;;;;24.14;57.26;96826.34;5052144;28;20712;-67
2022/08/01 06:00:25;;;;;;;69.63;65.93;;;;;;;24.07;58.11;96822.56;5052047;28;20208;-66
2022/08/01 06:02:50;;;;;;;77.30;73.38;;;;;;;24.57;56.75;96831.03;5052052;28;20247;-66
2022/08/01 06:05:15;;;;;;;231.18;219.10;;;;;;;25.02;55.58;96826.13;5052204;28;20252;-66
2022/08/01 06:07:41;;;;;;;324.17;307.15;;;;;;;25.18;54.53;96825.31;5051747;28;20190;-67
2022/08/01 06:10:07;;;;;;;340.27;321.55;;;;;;;25.20;54.01;96825.75;5051517;28;20694;-67
2022/08/01 06:12:33;;;;;;;372.77;353.08;;;;;;;25.23;54.20;96827.81;5051534;28;20221;-67
2022/08/01 06:14:58;;;;;;;496.15;467.20;;;;;;;25.45;54.08;96829.50;5052829;28;20181;-66
2022/08/01 06:17:24;;;;;;;307.50;291.27;;;;;;;25.25;54.48;96825.59;5049917;28;20181;-68
2022/08/01 06:19:49;;;;;;;358.17;339.20;;;;;;;25.11;54.31;96825.00;5050937;28;20192;-68
2022/08/01 06:22:15;;;;;;;300.00;284.35;;;;;;;25.15;54.39;96831.31;5051357;28;20174;-67
2022/08/01 06:24:40;;;;;;;307.75;291.58;;;;;;;25.75;52.91;96826.88;5055444;28;20185;-67
2022/08/01 06:27:05;;;;;;;419.42;396.52;;;;;;;25.60;52.85;96820.16;5055437;28;20268;-68
2022/08/01 06:29:32;;;;;;;473.35;446.55;;;;;;;25.77;52.78;96833.50;5055184;28;20244;-67
2022/08/01 06:31:57;;;;;;;603.33;566.10;;;;;;;26.03;51.81;96823.41;5055362;28;20217;-68
2022/08/01 06:34:23;;;;;;;610.92;573.10;;;;;;;26.25;51.61;96822.34;5055445;28;20222;-68
2022/08/01 06:36:48;;;;;;;663.63;621.15;;;;;;;26.31;51.25;96823.75;5055428;28;20192;-67
2022/08/01 06:39:13;;;;;;;693.60;648.78;;;;;;;26.03;51.94;96820.72;5055798;28;20190;-68
2022/08/01 06:41:41;;;;;;;713.92;668.58;;;;;;;26.02;51.93;96821.06;5054868;28;20495;-66
2022/08/01 06:44:07;;;;;;;679.40;636.05;;;;;;;26.47;51.14;96827.41;5055600;28;20182;-67
2022/08/01 06:46:32;;;;;;;717.47;672.53;;;;;;;26.79;50.16;96822.44;5055594;28;20186;-66
2022/08/01 06:48:57;;;;;;;700.58;657.38;;;;;;;26.32;51.46;96829.91;5053795;28;20198;-67
2022/08/01 06:51:23;;;;;;;669.58;628.90;;;;;;;26.80;50.50;96832.09;5054919;28;20178;-66
2022/08/01 06:53:48;;;;;;;612.60;575.80;;;;;;;26.99;50.06;96829.72;5055006;28;20190;-66
2022/08/01 06:56:13;;;;;;;527.28;496.30;;;;;;;27.13;49.52;96829.44;5055086;28;20182;-69
2022/08/01 06:58:39;;;;;;;501.25;472.10;;;;;;;26.83;50.10;96834.09;5053833;28;20226;-67
2022/08/01 07:01:06;;;;;;;487.13;459.10;;;;;;;27.14;49.49;96828.31;5054622;28;20635;-69
2022/08/01 07:03:32;;;;;;;557.80;525.45;;;;;;;27.45;48.77;96825.13;5053995;28;20181;-67
2022/08/01 07:05:58;;;;;;;552.50;521.28;;;;;;;26.77;50.09;96832.72;5054138;28;20190;-67
2022/08/01 07:08:23;;;;;;;631.05;594.70;;;;;;;26.19;51.34;96830.91;5053184;28;20236;-69
2022/08/01 07:10:49;;;;;;;553.85;522.58;;;;;;;26.64;50.67;96825.72;5054053;28;20174;-68
2022/08/01 07:13:20;;;;;;;636.28;599.40;;;;;;;26.76;49.62;96831.94;5054263;28;20266;-68
2022/08/01 07:15:46;;;;;;;593.65;559.92;;;;;;;26.71;49.95;96831.34;5053621;28;20255;-67
2022/08/01 07:18:11;;;;;;;550.08;519.38;;;;;;;26.64;49.81;96829.19;5053653;28;20722;-67
2022/08/01 07:20:37;;;;;;;361.58;341.70;;;;;;;26.57;50.40;96830.84;5052543;28;20878;-66
2022/08/01 07:23:03;;;;;;;321.17;303.75;;;;;;;25.01;53.44;96832.59;5054547;28;20205;-68
2022/08/01 07:25:28;;;;;;;279.88;264.58;;;;;;;25.05;53.42;96838.91;5054643;28;20635;-67
2022/08/01 07:27:53;;;;;;;284.83;269.10;;;;;;;26.49;50.38;96832.47;5054743;28;20661;-66
2022/08/01 07:30:19;;;;;;;524.00;495.25;;;;;;;27.06;48.56;96829.19;5054498;28;20316;-67
2022/08/01 07:32:44;;;;;;;480.23;454.23;;;;;;;27.02;49.16;96823.69;5053935;28;20182;-67
2022/08/01 07:35:10;;;;;;;672.75;633.42;;;;;;;26.92;48.99;96823.31;5053424;28;20251;-67
2022/08/01 07:37:35;;;;;;;681.67;641.47;;;;;;;26.92;48.82;96829.44;5038491;28;20178;-67
2022/08/01 07:40:03;;;;;;;693.40;652.22;;;;;;;26.68;49.30;96826.63;5054212;28;20569;-67
2022/08/01 07:42:29;;;;;;;660.80;622.00;;;;;;;26.86;49.05;96823.44;5053188;28;20714;-67
2022/08/01 07:44:54;;;;;;;610.97;575.63;;;;;;;26.72;49.26;96832.94;5054153;28;20284;-66
2022/08/01 07:47:24;;;;;;;607.97;572.90;;;;;;;26.99;48.79;96827.00;5054107;28;20205;-67
2022/08/01 07:49:49;;;;;;;643.30;605.83;;;;;;;27.32;47.83;96827.00;5053612;28;20206;-67
2022/08/01 07:52:15;;;;;;;744.67;700.08;;;;;;;27.78;46.72;96817.00;5055317;28;20192;-66
2022/08/01 07:54:40;;;;;;;694.85;655.20;;;;;;;26.82;48.61;96825.25;5054358;28;20189;-67
2022/08/01 07:57:06;;;;;;;716.67;673.90;;;;;;;26.17;50.51;96819.69;5051779;28;20272;-67
2022/08/01 07:59:31;;;;;;;524.10;494.83;;;;;;;26.62;49.94;96820.69;5053360;28;20194;-66
2022/08/01 08:01:57;;;;;;;421.98;399.35;;;;;;;25.34;52.39;96830.16;5053810;28;20260;-67
2022/08/01 08:04:22;;;;;;;150.07;142.25;;;;;;;25.55;52.26;96833.72;5053903;28;20185;-66
2022/08/01 08:06:48;;;;;;;199.45;188.90;;;;;;;26.12;51.45;96833.31;5054084;28;20193;-66
2022/08/01 08:09:15;;;;;;;194.45;184.00;;;;;;;26.82;49.37;96825.25;5053833;28;20735;-66
2022/08/01 08:11:44;;;;;;;374.80;354.90;;;;;;;27.53;47.85;96822.34;5054243;28;20190;-66
2022/08/01 08:14:09;;;;;;;743.70;698.60;;;;;;;28.04;46.16;96820.13;5052662;28;20589;-67
2022/08/01 08:16:34;;;;;;;398.48;375.70;;;;;;;27.71;46.32;96820.25;5053878;28;20184;-67
2022/08/01 08:19:00;;;;;;;259.88;245.10;;;;;;;27.43;47.12;96825.44;5052997;28;20288;-66
2022/08/01 08:21:25;;;;;;;273.55;258.20;;;;;;;26.79;48.78;96823.22;5053323;28;20232;-66
2022/08/01 08:26:34;;;;;;;689.33;649.22;;;;;;;26.87;48.85;96813.47;5045303;28;20189;-67
2022/08/01 08:29:00;;;;;;;549.13;518.05;;;;;;;26.98;48.36;96814.66;5053753;28;20209;-67
2022/08/01 08:31:25;;;;;;;463.92;437.65;;;;;;;26.82;48.46;96817.16;5053703;28;20273;-67
2022/08/01 08:33:50;;;;;;;598.95;564.25;;;;;;;27.35;47.75;96814.78;5053755;28;20188;-67
2022/08/01 08:36:16;;;;;;;594.63;558.60;;;;;;;26.84;48.30;96817.63;5053355;28;20240;-66
2022/08/01 08:38:41;;;;;;;626.67;590.75;;;;;;;26.93;48.55;96817.56;5053593;28;20235;-67
2022/08/01 08:41:08;;;;;;;649.70;612.50;;;;;;;26.57;49.22;96814.72;5052963;28;20190;-67
2022/08/01 08:43:35;;;;;;;713.05;670.78;;;;;;;26.26;50.40;96809.69;5038384;28;20324;-67
2022/08/01 08:46:01;;;;;;;694.95;653.88;;;;;;;26.15;50.05;96814.66;5052212;28;20194;-67
2022/08/01 08:48:27;;;;;;;711.15;668.90;;;;;;;26.22;50.89;96814.91;5052993;28;20291;-67
2022/08/01 08:50:53;;;;;;;698.83;657.05;;;;;;;26.50;49.34;96809.84;5052126;28;20304;-67
2022/08/01 08:53:18;;;;;;;649.22;611.05;;;;;;;25.92;50.81;96805.28;5052932;28;20220;-67
2022/08/01 08:55:44;;;;;;;546.72;515.75;;;;;;;26.19;50.07;96809.44;5057395;28;20190;-67
2022/08/01 08:58:12;;;;;;;408.58;386.40;;;;;;;26.14;50.80;96817.69;5056236;28;20288;-66
2022/08/01 09:00:39;;;;;;;353.38;334.70;;;;;;;26.12;50.48;96812.63;5051136;28;20215;-66
2022/08/01 09:03:05;;;;;;;461.65;436.52;;;;;;;26.61;49.32;96810.25;5052510;28;20200;-67
2022/08/01 09:05:30;;;;;;;580.47;546.95;;;;;;;26.91;48.44;96819.81;5051943;28;20562;-66
2022/08/01 09:07:56;;;;;;;684.25;642.60;;;;;;;27.52;47.54;96815.41;5052997;28;20213;-66
2022/08/01 09:10:21;;;;;;;538.13;507.08;;;;;;;27.80;46.15;96809.38;5052246;28;20252;-66
2022/08/01 09:13:22;;;;;;;314.00;295.55;;;;;;;27.05;47.40;96814.94;5052857;28;20216;-67
2022/08/01 09:15:50;;;;;;;245.88;231.75;;;;;;;27.48;47.51;96814.47;5009769;28;20199;-67
2022/08/01 09:18:44;;;;;;;164.48;155.65;;;;;;;27.54;47.33;96823.13;5041318;28;20206;-67
2022/08/01 09:21:16;;;;;;;167.70;158.50;;;;;;;26.78;49.04;96823.53;5051081;28;20229;-66
2022/08/01 09:23:45;;;;;;;393.80;372.35;;;;;;;26.52;49.88;96814.91;5052154;28;20196;-66
2022/08/01 09:26:17;;;;;;;633.40;596.95;;;;;;;26.29;50.39;96815.22;5052401;28;20197;-67
2022/08/01 09:28:44;;;;;;;663.70;624.72;;;;;;;26.42;50.82;96816.06;5052099;28;20567;-67
2022/08/01 09:31:11;;;;;;;572.13;539.45;;;;;;;26.07;51.57;96820.88;5052522;28;20178;-66
2022/08/01 09:33:57;;;;;;;561.65;529.50;;;;;;;26.74;49.45;96823.44;5052150;28;20182;-66
2022/08/01 09:36:25;;;;;;;589.05;555.30;;;;;;;26.09;51.10;96832.84;5051945;28;20184;-66
2022/08/01 09:38:53;;;;;;;565.58;533.25;;;;;;;26.57;50.35;96828.94;5051710;28;20182;-67
2022/08/01 09:41:29;;;;;;;608.58;573.17;;;;;;;26.79;49.75;96831.28;5051948;28;20260;-66
2022/08/01 09:43:55;;;;;;;538.85;508.23;;;;;;;27.33;49.21;96828.56;5051348;28;20620;-66
2022/08/01 09:46:21;;;;;;;645.22;607.13;;;;;;;27.04;49.39;96832.19;5051343;28;20240;-66
2022/08/01 09:48:56;;;;;;;649.13;610.30;;;;;;;26.79;49.52;96827.81;5051715;28;20201;-66
2022/08/01 09:51:37;;;;;;;697.22;654.92;;;;;;;26.00;50.74;96817.91;5051971;28;20696;-67
2022/08/01 09:54:05;;;;;;;678.60;638.05;;;;;;;25.94;51.11;96824.56;5052030;28;20169;-67
2022/08/01 09:56:38;;;;;;;437.83;414.10;;;;;;;25.80;52.00;96826.72;5061101;28;20713;-67
2022/08/01 09:59:05;;;;;;;102.18;96.65;;;;;;;25.81;52.48;96821.00;5050938;28;20213;-67
2022/08/01 10:01:49;;;;;;;83.43;78.60;;;;;;;25.59;52.49;96822.03;5050402;28;20643;-67
2022/08/01 10:04:20;;;;;;;174.05;164.80;;;;;;;25.67;53.49;96815.06;5046224;28;20186;-67
2022/08/01 10:06:52;;;;;;;218.15;206.55;;;;;;;25.45;53.60;96831.38;5052029;28;20182;-67
2022/08/01 10:09:28;;;;;;;316.90;299.58;;;;;;;25.56;53.31;96817.31;5051756;28;20659;-67
2022/08/01 10:11:55;;;;;;;397.90;375.80;;;;;;;25.74;52.99;96818.03;5051515;28;20186;-66
2022/08/01 10:14:24;;;;;;;325.38;308.05;;;;;;;25.57;52.89;96815.44;5051364;28;20191;-67
2022/08/01 10:16:52;;;;;;;412.70;389.75;;;;;;;25.45;53.70;96815.28;5051201;28;20220;-69
2022/08/01 10:19:18;;;;;;;414.45;391.35;;;;;;;25.62;53.47;96802.63;5051934;28;20205;-68
2022/08/01 10:21:47;;;;;;;412.33;389.15;;;;;;;25.67;52.82;96804.31;5051748;28;20588;-67
2022/08/01 10:24:13;;;;;;;410.52;387.80;;;;;;;26.06;51.88;96809.34;5036011;28;20178;-67
2022/08/01 10:26:39;;;;;;;351.42;332.45;;;;;;;26.56;50.38;96803.16;5052057;28;20251;-67
2022/08/01 10:29:05;;;;;;;357.55;338.10;;;;;;;26.43;50.89;96804.19;5051572;28;20198;-67
2022/08/01 10:31:32;;;;;;;336.73;318.38;;;;;;;25.97;51.85;96805.91;5050766;28;20182;-67
2022/08/01 10:33:58;;;;;;;386.27;364.95;;;;;;;26.59;50.66;96802.50;5050258;28;20186;-68
2022/08/01 10:36:24;;;;;;;381.45;360.63;;;;;;;26.00;52.09;96797.19;5051681;28;20296;-67
2022/08/01 10:38:51;;;;;;;288.70;273.00;;;;;;;25.98;51.57;96794.03;5051062;28;20552;-67
2022/08/01 10:41:18;;;;;;;382.02;361.23;;;;;;;26.12;51.96;96796.50;5051748;28;20264;-67
2022/08/01 10:43:43;;;;;;;414.13;391.33;;;;;;;26.04;52.29;96790.06;5051704;28;20230;-67
2022/08/01 10:46:09;;;;;;;409.70;387.02;;;;;;;26.35;51.48;96792.41;5051601;28;20255;-67
2022/08/01 10:49:00;;;;;;;341.38;322.90;;;;;;;26.54;50.35;96794.63;5050472;28;20697;-68
2022/08/01 10:51:27;;;;;;;312.00;295.40;;;;;;;26.85;48.86;96797.69;5051733;28;20631;-68
2022/08/01 10:53:54;;;;;;;588.55;554.22;;;;;;;27.40;47.61;96795.72;5051748;28;20217;-67
2022/08/01 10:56:20;;;;;;;710.03;666.67;;;;;;;27.26;47.81;96787.94;5051376;28;20182;-68
2022/08/01 10:58:46;;;;;;;710.13;666.80;;;;;;;26.69;49.07;96788.66;5050853;28;20182;-67
2022/08/01 11:01:15;;;;;;;689.03;647.67;;;;;;;26.17;49.70;96790.94;5051048;28;20182;-67
2022/08/01 11:03:55;;;;;;;604.80;569.67;;;;;;;26.32;49.28;96784.22;5051497;28;20186;-67
2022/08/01 11:06:25;;;;;;;448.50;424.42;;;;;;;25.83;50.66;96793.81;5051296;28;20182;-68
2022/08/01 11:08:53;;;;;;;196.48;186.32;;;;;;;25.83;50.55;96791.13;5052736;28;20655;-68